createdAt,value
2019-03-12T00:01:49.140Z,5.12
2019-03-12T00:04:38.416Z,5.65
2019-03-12T00:07:27.250Z,5.97
2019-03-12T00:10:16.761Z,5.35
2019-03-12T00:13:05.835Z,4.58
2019-03-12T00:15:54.964Z,5.25
2019-03-12T00:18:43.927Z,4.78
2019-03-12T00:21:33.005Z,5.30
2019-03-12T00:24:22.304Z,4.60
2019-03-12T00:27:11.544Z,4.75
2019-03-12T00:30:00.512Z,4.80
2019-03-12T00:32:49.882Z,4.08
2019-03-12T00:35:38.548Z,3.62
2019-03-12T00:38:27.918Z,4.62
2019-03-12T00:41:19.970Z,4.05
2019-03-12T00:44:08.090Z,3.70
2019-03-12T00:46:57.203Z,4.67
2019-03-12T00:49:45.911Z,5.65
2019-03-12T00:52:35.433Z,5.97
2019-03-12T00:55:24.466Z,5.53
2019-03-12T00:58:13.328Z,4.45
2019-03-12T01:01:02.372Z,4.92
2019-03-12T01:03:51.805Z,5.12
2019-03-12T01:06:41.610Z,6.45
2019-03-12T01:09:30.390Z,6.05
2019-03-12T01:12:19.466Z,6.00
2019-03-12T01:15:11.801Z,6.33
2019-03-12T01:18:00.960Z,6.35
2019-03-12T01:20:49.747Z,7.50
2019-03-12T01:23:39.373Z,5.25
2019-03-12T01:26:29.067Z,7.20
2019-03-12T01:29:18.360Z,6.50
2019-03-12T01:32:07.709Z,6.28
2019-03-12T01:34:57.077Z,7.40
2019-03-12T01:37:46.787Z,6.28
2019-03-12T01:40:35.527Z,6.30
2019-03-12T01:43:25.194Z,7.50
2019-03-12T01:46:13.951Z,6.75
2019-03-12T01:49:03.315Z,6.10
2019-03-12T01:51:51.995Z,5.87
2019-03-12T01:54:41.229Z,5.92
2019-03-12T01:57:29.787Z,5.30
2019-03-12T02:00:21.030Z,5.83
2019-03-12T02:03:10.263Z,6.05
2019-03-12T02:06:00.071Z,6.40
2019-03-12T02:08:50.034Z,6.08
2019-03-12T02:11:39.327Z,6.25
2019-03-12T02:14:29.354Z,6.47
2019-03-12T02:17:18.582Z,6.10
2019-03-12T02:20:14.735Z,6.50
2019-03-12T02:23:03.979Z,6.62
2019-03-12T02:25:52.494Z,5.62
2019-03-12T02:28:42.316Z,5.92
2019-03-12T02:31:31.460Z,6.95
2019-03-12T02:34:23.362Z,5.50
2019-03-12T02:37:12.852Z,5.55
2019-03-12T02:40:01.957Z,5.53
2019-03-12T02:42:51.200Z,5.80
2019-03-12T02:45:40.289Z,6.05
2019-03-12T02:48:29.538Z,5.75
2019-03-12T02:51:18.830Z,5.80
2019-03-12T02:54:07.660Z,4.90
2019-03-12T02:56:57.158Z,5.03
2019-03-12T02:59:46.174Z,5.33
2019-03-12T03:02:35.606Z,4.53
2019-03-12T03:05:24.890Z,4.80
2019-03-12T03:08:15.567Z,4.95
2019-03-12T03:11:04.233Z,4.70
2019-03-12T03:13:53.499Z,4.78
2019-03-12T03:16:42.703Z,5.03
2019-03-12T03:19:31.417Z,5.20
2019-03-12T03:22:20.649Z,5.30
2019-03-12T03:25:10.785Z,5.95
2019-03-12T03:28:00.137Z,8.13
2019-03-12T03:30:49.490Z,5.62
2019-03-12T03:33:39.186Z,5.95
2019-03-12T03:36:28.464Z,6.10
2019-03-12T03:39:17.611Z,6.40
2019-03-12T03:42:07.414Z,5.70
2019-03-12T03:44:56.728Z,6.70
2019-03-12T03:47:46.364Z,7.12
2019-03-12T03:50:35.700Z,7.22
2019-03-12T03:53:25.387Z,7.28
2019-03-12T03:56:14.463Z,7.00
2019-03-12T03:59:03.445Z,7.60
2019-03-12T04:01:52.203Z,8.68
2019-03-12T04:04:41.478Z,7.40
2019-03-12T04:07:30.511Z,7.37
2019-03-12T04:10:19.704Z,7.97
2019-03-12T04:13:08.731Z,8.20
2019-03-12T04:15:58.242Z,7.83
2019-03-12T04:18:47.830Z,8.23
2019-03-12T04:21:36.978Z,7.45
2019-03-12T04:24:26.533Z,8.33
2019-03-12T04:27:15.940Z,7.65
2019-03-12T04:30:15.134Z,8.45
2019-03-12T04:33:04.799Z,8.30
2019-03-12T04:35:53.987Z,7.85
2019-03-12T04:38:43.195Z,8.50
2019-03-12T04:41:32.520Z,8.98
2019-03-12T04:44:22.213Z,8.30
2019-03-12T04:47:10.845Z,8.30
2019-03-12T04:50:00.243Z,9.10
2019-03-12T04:52:49.346Z,9.13
2019-03-12T04:55:38.663Z,9.13
2019-03-12T04:58:27.940Z,9.18
2019-03-12T05:01:17.401Z,9.53
2019-03-12T05:04:07.117Z,9.35
2019-03-12T05:06:56.619Z,8.73
2019-03-12T05:09:45.680Z,8.85
2019-03-12T05:12:35.295Z,9.18
2019-03-12T05:15:23.788Z,7.62
2019-03-12T05:18:12.619Z,7.92
2019-03-12T05:21:01.023Z,7.45
2019-03-12T05:23:50.021Z,6.90
2019-03-12T05:26:39.358Z,8.15
2019-03-12T05:29:28.868Z,8.20
2019-03-12T05:32:18.243Z,7.35
2019-03-12T05:35:07.723Z,7.80
2019-03-12T05:37:57.092Z,10.80
2019-03-12T05:40:46.176Z,10.80
2019-03-12T05:43:35.085Z,10.68
2019-03-12T05:46:24.229Z,9.65
2019-03-12T05:49:13.255Z,10.08
2019-03-12T05:52:02.317Z,10.32
2019-03-12T05:54:51.525Z,10.63
2019-03-12T05:57:40.373Z,11.57
2019-03-12T06:00:29.501Z,11.65
2019-03-12T06:03:18.447Z,11.08
2019-03-12T06:06:08.145Z,11.03
2019-03-12T06:08:57.342Z,11.70
2019-03-12T06:11:46.480Z,11.78
2019-03-12T06:14:35.541Z,11.75
2019-03-12T06:17:25.253Z,11.53
2019-03-12T06:20:16.448Z,12.37
2019-03-12T06:23:05.604Z,12.93
2019-03-12T06:25:55.002Z,12.47
2019-03-12T06:28:44.346Z,11.97
2019-03-12T06:31:34.728Z,13.40
2019-03-12T06:34:25.552Z,12.28
2019-03-12T06:37:28.649Z,10.95
2019-03-12T06:40:19.215Z,12.20
2019-03-12T06:43:15.881Z,11.15
2019-03-12T06:46:11.175Z,10.48
2019-03-12T06:49:07.446Z,10.53
2019-03-12T06:51:58.322Z,9.08
2019-03-12T06:54:48.704Z,8.53
2019-03-12T06:57:46.488Z,9.45
2019-03-12T07:00:46.112Z,6.92
2019-03-12T07:03:36.801Z,5.97
2019-03-12T07:06:30.170Z,7.40
2019-03-12T07:09:37.022Z,5.92
2019-03-12T07:12:29.706Z,5.25
2019-03-12T07:15:28.804Z,5.58
2019-03-12T07:18:17.667Z,5.40
2019-03-12T07:21:14.273Z,5.10
2019-03-12T07:24:21.210Z,5.10
2019-03-12T07:27:28.968Z,5.20
2019-03-12T07:30:19.195Z,4.60
2019-03-12T07:33:09.657Z,5.10
2019-03-12T07:36:02.564Z,4.50
2019-03-12T07:38:56.285Z,5.22
2019-03-12T07:41:52.284Z,5.10
2019-03-12T07:44:58.297Z,4.87
2019-03-12T07:47:55.372Z,5.50
2019-03-12T07:50:59.574Z,4.92
2019-03-12T07:54:05.955Z,5.42
2019-03-12T07:57:13.073Z,5.30
2019-03-12T08:00:10.149Z,5.20
2019-03-12T08:03:06.523Z,6.20
2019-03-12T08:06:06.833Z,4.90
2019-03-12T08:09:13.742Z,4.72
2019-03-12T08:12:10.087Z,4.70
2019-03-12T08:15:22.332Z,3.95
2019-03-12T08:18:09.737Z,4.85
2019-03-12T08:21:03.581Z,4.33
2019-03-12T08:23:54.943Z,3.92
2019-03-12T08:26:48.634Z,3.70
2019-03-12T08:29:39.736Z,3.87
2019-03-12T08:32:30.589Z,3.30
2019-03-12T11:26:15.609Z,7.10
2019-03-12T11:29:04.599Z,7.33
2019-03-12T11:31:53.659Z,8.00
2019-03-12T11:34:43.274Z,7.03
2019-03-12T11:37:32.005Z,8.10
2019-03-12T11:40:25.397Z,7.80
2019-03-12T11:43:15.392Z,6.90
2019-03-12T11:46:05.165Z,6.70
2019-03-12T11:48:55.450Z,7.15
2019-03-12T11:54:32.669Z,6.90
2019-03-12T23:07:15.443Z,2.00
2019-03-12T23:10:12.499Z,2.92
2019-03-12T23:13:01.833Z,2.37
2019-03-12T23:15:50.761Z,2.45
2019-03-12T23:18:40.104Z,3.90
2019-03-12T23:21:28.976Z,2.20
2019-03-12T23:24:18.778Z,2.47
2019-03-12T23:27:07.648Z,2.27
2019-03-12T23:29:56.188Z,2.60
2019-03-12T23:32:45.326Z,2.70
2019-03-12T23:35:34.317Z,2.30
2019-03-12T23:38:23.489Z,2.00
2019-03-12T23:41:13.159Z,2.15
2019-03-12T23:44:02.098Z,2.02
2019-03-12T23:46:51.598Z,2.08
2019-03-12T23:49:40.238Z,2.92
2019-03-12T23:52:29.521Z,1.87
2019-03-12T23:55:19.782Z,3.65
2019-03-12T23:58:08.580Z,2.12
